Time,TemperatureF,DewpointF,PressureIn,WindDirection,WindDirectionDegrees,WindSpeedMPH,WindSpeedGustMPH,Humidity,HourlyPrecipIn,Conditions,Clouds,dailyrainin,SoftwareType,DateUTC
2013-03-06 00:01:00,51.0,-99.9,29.82,SE,135,14.0,25.0,-999,-99.99,,,-99.99,,2013-03-06 08:01:00,
2013-03-06 00:11:00,51.0,-99.9,29.81,SSE,148,15.0,27.0,-999,-99.99,,,-99.99,,2013-03-06 08:11:00,
2013-03-06 00:22:00,51.0,-99.9,29.82,SE,129,15.0,21.0,-999,-99.99,,,-99.99,,2013-03-06 08:22:00,
2013-03-06 00:32:00,52.0,-99.9,29.83,SE,137,12.0,23.0,-999,-99.99,,,-99.99,,2013-03-06 08:32:00,
2013-03-06 00:42:00,51.0,-99.9,29.82,SE,139,19.0,31.0,-999,-99.99,,,-99.99,,2013-03-06 08:42:00,
2013-03-06 00:52:00,51.0,-99.9,29.82,SE,137,18.0,27.0,-999,-99.99,,,-99.99,,2013-03-06 08:52:00,
2013-03-06 01:02:00,52.0,-99.9,29.83,SE,136,17.0,25.0,-999,-99.99,,,-99.99,,2013-03-06 09:02:00,
2013-03-06 01:12:00,52.0,-99.9,29.83,SE,131,19.0,30.0,-999,-99.99,,,-99.99,,2013-03-06 09:12:00,
2013-03-06 01:22:00,51.0,-99.9,29.83,SE,141,16.0,31.0,-999,-99.99,,,-99.99,,2013-03-06 09:22:00,
2013-03-06 01:32:00,51.0,-99.9,29.84,SE,141,11.0,24.0,-999,-99.99,,,-99.99,,2013-03-06 09:32:00,
2013-03-06 01:42:00,51.0,-99.9,29.83,SE,132,11.0,21.0,-999,-99.99,,,-99.99,,2013-03-06 09:42:00,
2013-03-06 01:52:00,51.0,-99.9,29.83,ESE,117,10.0,17.0,-999,-99.99,,,-99.99,,2013-03-06 09:52:00,
2013-03-06 02:02:00,52.0,-99.9,29.83,ESE,121,12.0,17.0,-999,-99.99,,,-99.99,,2013-03-06 10:02:00,
2013-03-06 02:11:00,53.0,-99.9,29.83,ESE,118,9.0,17.0,-999,-99.99,,,-99.99,,2013-03-06 10:11:00,
2013-03-06 02:22:00,53.0,-99.9,29.84,North,359,2.0,8.0,-999,-99.99,,,-99.99,,2013-03-06 10:22:00,
2013-03-06 02:32:00,53.0,-99.9,29.84,North,359,2.0,8.0,-999,-99.99,,,-99.99,,2013-03-06 10:32:00,
2013-03-06 02:42:00,52.0,-99.9,29.85,NE,49,4.0,9.0,-999,-99.99,,,-99.99,,2013-03-06 10:42:00,
2013-03-06 02:52:00,52.0,-99.9,29.84,NNW,334,3.0,9.0,-999,-99.99,,,-99.99,,2013-03-06 10:52:00,
2013-03-06 03:02:00,52.0,-99.9,29.85,West,262,5.0,9.0,-999,-99.99,,,-99.99,,2013-03-06 11:02:00,
2013-03-06 03:11:00,52.0,-99.9,29.84,SW,218,2.0,12.0,-999,-99.99,,,-99.99,,2013-03-06 11:11:00,
2013-03-06 03:23:00,52.0,-99.9,29.85,WNW,300,2.0,9.0,-999,-99.99,,,-99.99,,2013-03-06 11:23:00,
2013-03-06 03:32:00,53.0,-99.9,29.85,SSW,204,5.0,11.0,-999,-99.99,,,-99.99,,2013-03-06 11:32:00,
2013-03-06 03:43:00,53.0,-99.9,29.85,WSW,241,6.0,20.0,-999,-99.99,,,-99.99,,2013-03-06 11:43:00,
2013-03-06 03:52:00,53.0,-99.9,29.85,NW,307,5.0,8.0,-999,-99.99,,,-99.99,,2013-03-06 11:52:00,
2013-03-06 04:02:00,53.0,-99.9,29.86,NW,306,3.0,12.0,-999,-99.99,,,-99.99,,2013-03-06 12:02:00,
2013-03-06 04:12:00,53.0,-99.9,29.86,SSW,211,2.0,9.0,-999,-99.99,,,-99.99,,2013-03-06 12:12:00,
2013-03-06 04:22:00,52.0,-99.9,29.87,WSW,255,3.0,14.0,-999,-99.99,,,-99.99,,2013-03-06 12:22:00,
2013-03-06 04:33:00,52.0,-99.9,29.88,WSW,253,8.0,16.0,-999,-99.99,,,-99.99,,2013-03-06 12:33:00,
2013-03-06 04:43:00,52.0,-99.9,29.88,WSW,252,9.0,19.0,-999,-99.99,,,-99.99,,2013-03-06 12:43:00,
2013-03-06 04:53:00,51.0,-99.9,29.88,WSW,243,9.0,18.0,-999,-99.99,,,-99.99,,2013-03-06 12:53:00,
2013-03-06 05:02:00,51.0,-99.9,29.89,WSW,246,9.0,15.0,-999,-99.99,,,-99.99,,2013-03-06 13:02:00,
2013-03-06 05:12:00,51.0,-99.9,29.89,WSW,252,12.0,21.0,-999,-99.99,,,-99.99,,2013-03-06 13:12:00,
2013-03-06 05:22:00,51.0,-99.9,29.89,WSW,245,10.0,21.0,-999,-99.99,,,-99.99,,2013-03-06 13:22:00,
2013-03-06 05:32:00,50.0,-99.9,29.90,WSW,252,12.0,22.0,-999,-99.99,,,-99.99,,2013-03-06 13:32:00,
2013-03-06 05:42:00,50.0,-99.9,29.90,WSW,252,11.0,17.0,-999,-99.99,,,-99.99,,2013-03-06 13:42:00,
2013-03-06 05:52:00,50.0,-99.9,29.90,WSW,248,12.0,18.0,-999,-99.99,,,-99.99,,2013-03-06 13:52:00,
2013-03-06 06:02:00,50.0,-99.9,29.90,WSW,250,12.0,19.0,-999,-99.99,,,-99.99,,2013-03-06 14:02:00,
2013-03-06 06:11:00,50.0,-99.9,29.90,WSW,247,9.0,17.0,-999,-99.99,,,-99.99,,2013-03-06 14:11:00,
2013-03-06 06:22:00,50.0,-99.9,29.91,WSW,246,9.0,19.0,-999,-99.99,,,-99.99,,2013-03-06 14:22:00,
2013-03-06 06:32:00,50.0,-99.9,29.91,WSW,247,10.0,18.0,-999,-99.99,,,-99.99,,2013-03-06 14:32:00,
2013-03-06 06:42:00,50.0,-99.9,29.92,WSW,251,6.0,15.0,-999,-99.99,,,-99.99,,2013-03-06 14:42:00,
2013-03-06 06:53:00,50.0,-99.9,29.93,WSW,254,7.0,15.0,-999,-99.99,,,-99.99,,2013-03-06 14:53:00,
2013-03-06 07:02:00,50.0,-99.9,29.93,WSW,239,4.0,10.0,-999,-99.99,,,-99.99,,2013-03-06 15:02:00,
2013-03-06 07:12:00,50.0,-99.9,29.94,SW,235,6.0,13.0,-999,-99.99,,,-99.99,,2013-03-06 15:12:00,
2013-03-06 07:22:00,50.0,-99.9,29.94,WSW,253,9.0,12.0,-999,-99.99,,,-99.99,,2013-03-06 15:22:00,
2013-03-06 07:32:00,50.0,-99.9,29.95,SW,236,3.0,12.0,-999,-99.99,,,-99.99,,2013-03-06 15:32:00,
2013-03-06 07:42:00,50.0,-99.9,29.95,NE,42,2.0,9.0,-999,-99.99,,,-99.99,,2013-03-06 15:42:00,
2013-03-06 07:52:00,50.0,-99.9,29.96,SW,218,3.0,8.0,-999,-99.99,,,-99.99,,2013-03-06 15:52:00,
2013-03-06 08:02:00,51.0,-99.9,29.97,NNW,348,4.0,7.0,-999,-99.99,,,-99.99,,2013-03-06 16:02:00,
2013-03-06 08:12:00,51.0,-99.9,29.97,North,349,3.0,9.0,-999,-99.99,,,-99.99,,2013-03-06 16:12:00,
2013-03-06 08:22:00,51.0,-99.9,29.98,NNE,32,4.0,11.0,-999,-99.99,,,-99.99,,2013-03-06 16:22:00,
2013-03-06 08:32:00,51.0,-99.9,29.99,NNW,347,5.0,9.0,-999,-99.99,,,-99.99,,2013-03-06 16:32:00,
2013-03-06 08:42:00,51.0,-99.9,30.00,West,274,4.0,7.0,-999,-99.99,,,-99.99,,2013-03-06 16:42:00,
2013-03-06 08:52:00,51.0,-99.9,30.00,SW,231,5.0,10.0,-999,-99.99,,,-99.99,,2013-03-06 16:52:00,
2013-03-06 09:01:00,52.0,-99.9,30.01,WSW,257,4.0,7.0,-999,-99.99,,,-99.99,,2013-03-06 17:01:00,
2013-03-06 09:11:00,51.0,-99.9,30.01,East,98,4.0,11.0,-999,-99.99,,,-99.99,,2013-03-06 17:11:00,
2013-03-06 09:22:00,51.0,-99.9,30.01,East,98,4.0,11.0,-999,-99.99,,,-99.99,,2013-03-06 17:22:00,
2013-03-06 09:32:00,52.0,-99.9,30.01,SSE,149,6.0,12.0,-999,-99.99,,,-99.99,,2013-03-06 17:32:00,
2013-03-06 09:42:00,52.0,-99.9,30.01,SE,143,6.0,10.0,-999,-99.99,,,-99.99,,2013-03-06 17:42:00,
2013-03-06 09:53:00,52.0,-99.9,30.02,WNW,288,2.0,6.0,-999,-99.99,,,-99.99,,2013-03-06 17:53:00,
2013-03-06 10:02:00,53.0,-99.9,30.02,South,189,2.0,7.0,-999,-99.99,,,-99.99,,2013-03-06 18:02:00,
2013-03-06 10:29:00,53.0,-99.9,30.03,West,261,3.0,11.0,-999,-99.99,,,-99.99,,2013-03-06 18:29:00,
2013-03-06 10:42:00,53.0,-99.9,30.04,SW,234,2.0,10.0,-999,-99.99,,,-99.99,,2013-03-06 18:42:00,
2013-03-06 10:53:00,53.0,-99.9,30.04,WSW,238,3.0,7.0,-999,-99.99,,,-99.99,,2013-03-06 18:53:00,
2013-03-06 11:02:00,53.0,-99.9,30.04,WSW,251,7.0,13.0,-999,-99.99,,,-99.99,,2013-03-06 19:02:00,
2013-03-06 11:12:00,53.0,-99.9,30.04,SW,229,7.0,15.0,-999,-99.99,,,-99.99,,2013-03-06 19:12:00,
2013-03-06 11:22:00,53.0,-99.9,30.04,WSW,256,6.0,12.0,-999,-99.99,,,-99.99,,2013-03-06 19:22:00,
2013-03-06 11:33:00,53.0,-99.9,30.05,WSW,238,7.0,15.0,-999,-99.99,,,-99.99,,2013-03-06 19:33:00,
2013-03-06 11:43:00,53.0,-99.9,30.05,WSW,243,6.0,14.0,-999,-99.99,,,-99.99,,2013-03-06 19:43:00,
2013-03-06 11:53:00,53.0,-99.9,30.05,WSW,246,7.0,13.0,-999,-99.99,,,-99.99,,2013-03-06 19:53:00,
2013-03-06 12:02:00,53.0,-99.9,30.05,WSW,249,8.0,15.0,-999,-99.99,,,-99.99,,2013-03-06 20:02:00,
2013-03-06 12:12:00,53.0,-99.9,30.05,WSW,258,9.0,14.0,-999,-99.99,,,-99.99,,2013-03-06 20:12:00,
2013-03-06 12:23:00,53.0,-99.9,30.05,WSW,258,9.0,14.0,-999,-99.99,,,-99.99,,2013-03-06 20:23:00,
2013-03-06 12:33:00,54.0,-99.9,30.05,SW,215,6.0,10.0,-999,-99.99,,,-99.99,,2013-03-06 20:33:00,
2013-03-06 12:43:00,53.0,-99.9,30.05,SW,233,10.0,16.0,-999,-99.99,,,-99.99,,2013-03-06 20:43:00,
2013-03-06 12:53:00,53.0,-99.9,30.04,WSW,256,10.0,15.0,-999,-99.99,,,-99.99,,2013-03-06 20:53:00,
2013-03-06 13:02:00,54.0,-99.9,30.04,WSW,255,8.0,13.0,-999,-99.99,,,-99.99,,2013-03-06 21:02:00,
2013-03-06 13:12:00,53.0,-99.9,30.04,WSW,255,12.0,17.0,-999,-99.99,,,-99.99,,2013-03-06 21:12:00,
2013-03-06 13:22:00,53.0,-99.9,30.04,SW,233,11.0,14.0,-999,-99.99,,,-99.99,,2013-03-06 21:22:00,
2013-03-06 13:33:00,53.0,-99.9,30.04,WSW,254,8.0,14.0,-999,-99.99,,,-99.99,,2013-03-06 21:33:00,
2013-03-06 13:43:00,53.0,-99.9,30.04,WSW,246,7.0,20.0,-999,-99.99,,,-99.99,,2013-03-06 21:43:00,
2013-03-06 13:52:00,54.0,-99.9,30.04,WSW,242,8.0,13.0,-999,-99.99,,,-99.99,,2013-03-06 21:52:00,
2013-03-06 14:02:00,54.0,-99.9,30.04,WSW,242,8.0,13.0,-999,-99.99,,,-99.99,,2013-03-06 22:02:00,
2013-03-06 14:12:00,53.0,-99.9,30.03,West,261,9.0,14.0,-999,-99.99,,,-99.99,,2013-03-06 22:12:00,
2013-03-06 14:22:00,53.0,-99.9,30.03,WSW,255,9.0,16.0,-999,-99.99,,,-99.99,,2013-03-06 22:22:00,
2013-03-06 14:32:00,54.0,-99.9,30.03,WSW,250,6.0,14.0,-999,-99.99,,,-99.99,,2013-03-06 22:32:00,
2013-03-06 14:42:00,54.0,-99.9,30.03,WSW,256,5.0,12.0,-999,-99.99,,,-99.99,,2013-03-06 22:42:00,
2013-03-06 14:52:00,55.0,-99.9,30.03,WSW,248,7.0,10.0,-999,-99.99,,,-99.99,,2013-03-06 22:52:00,
2013-03-06 15:02:00,55.0,-99.9,30.03,WSW,248,7.0,10.0,-999,-99.99,,,-99.99,,2013-03-06 23:02:00,
2013-03-06 15:11:00,54.0,-99.9,30.03,SW,230,4.0,14.0,-999,-99.99,,,-99.99,,2013-03-06 23:11:00,
2013-03-06 15:22:00,54.0,-99.9,30.03,SW,235,9.0,13.0,-999,-99.99,,,-99.99,,2013-03-06 23:22:00,
2013-03-06 15:32:00,54.0,-99.9,30.03,WSW,258,9.0,14.0,-999,-99.99,,,-99.99,,2013-03-06 23:32:00,
2013-03-06 15:42:00,53.0,-99.9,30.03,WSW,245,9.0,13.0,-999,-99.99,,,-99.99,,2013-03-06 23:42:00,
2013-03-06 15:52:00,53.0,-99.9,30.03,West,273,11.0,14.0,-999,-99.99,,,-99.99,,2013-03-06 23:52:00,
2013-03-06 16:02:00,54.0,-99.9,30.04,West,264,7.0,13.0,-999,-99.99,,,-99.99,,2013-03-07 00:02:00,
2013-03-06 16:11:00,54.0,-99.9,30.04,West,264,7.0,13.0,-999,-99.99,,,-99.99,,2013-03-07 00:11:00,
2013-03-06 16:22:00,53.0,-99.9,30.03,WSW,254,8.0,13.0,-999,-99.99,,,-99.99,,2013-03-07 00:22:00,
2013-03-06 16:32:00,53.0,-99.9,30.03,WSW,247,7.0,11.0,-999,-99.99,,,-99.99,,2013-03-07 00:32:00,
2013-03-06 16:42:00,54.0,-99.9,30.03,West,264,4.0,10.0,-999,-99.99,,,-99.99,,2013-03-07 00:42:00,
2013-03-06 16:52:00,53.0,-99.9,30.03,WSW,250,9.0,13.0,-999,-99.99,,,-99.99,,2013-03-07 00:52:00,
2013-03-06 17:02:00,54.0,-99.9,30.02,SW,232,4.0,11.0,-999,-99.99,,,-99.99,,2013-03-07 01:02:00,
2013-03-06 17:12:00,53.0,-99.9,30.02,SW,236,7.0,11.0,-999,-99.99,,,-99.99,,2013-03-07 01:12:00,
2013-03-06 17:22:00,53.0,-99.9,30.02,WSW,255,7.0,11.0,-999,-99.99,,,-99.99,,2013-03-07 01:22:00,
2013-03-06 17:32:00,53.0,-99.9,30.02,WSW,255,7.0,11.0,-999,-99.99,,,-99.99,,2013-03-07 01:32:00,
2013-03-06 17:42:00,53.0,-99.9,30.01,West,268,4.0,8.0,-999,-99.99,,,-99.99,,2013-03-07 01:42:00,
2013-03-06 17:52:00,52.0,-99.9,30.01,West,269,6.0,10.0,-999,-99.99,,,-99.99,,2013-03-07 01:52:00,
2013-03-06 18:01:00,52.0,-99.9,30.01,NW,316,5.0,7.0,-999,-99.99,,,-99.99,,2013-03-07 02:01:00,
2013-03-06 18:11:00,52.0,-99.9,30.01,SW,223,5.0,9.0,-999,-99.99,,,-99.99,,2013-03-07 02:11:00,
2013-03-06 18:22:00,52.0,-99.9,30.01,WSW,251,7.0,9.0,-999,-99.99,,,-99.99,,2013-03-07 02:22:00,
2013-03-06 18:32:00,52.0,-99.9,30.01,WSW,243,7.0,10.0,-999,-99.99,,,-99.99,,2013-03-07 02:32:00,
2013-03-06 18:42:00,52.0,-99.9,30.01,WSW,243,7.0,10.0,-999,-99.99,,,-99.99,,2013-03-07 02:42:00,
2013-03-06 18:52:00,52.0,-99.9,30.01,WSW,243,7.0,10.0,-999,-99.99,,,-99.99,,2013-03-07 02:52:00,
2013-03-06 19:02:00,51.0,-99.9,30.01,WSW,253,6.0,11.0,-999,-99.99,,,-99.99,,2013-03-07 03:02:00,
2013-03-06 19:12:00,51.0,-99.9,30.01,WSW,250,7.0,10.0,-999,-99.99,,,-99.99,,2013-03-07 03:12:00,
2013-03-06 19:22:00,51.0,-99.9,30.01,WSW,246,4.0,8.0,-999,-99.99,,,-99.99,,2013-03-07 03:22:00,
2013-03-06 19:32:00,51.0,-99.9,30.01,WSW,253,6.0,9.0,-999,-99.99,,,-99.99,,2013-03-07 03:32:00,
2013-03-06 19:42:00,51.0,-99.9,30.01,WSW,252,5.0,8.0,-999,-99.99,,,-99.99,,2013-03-07 03:42:00,
2013-03-06 19:52:00,51.0,-99.9,30.01,WSW,253,5.0,8.0,-999,-99.99,,,-99.99,,2013-03-07 03:52:00,
2013-03-06 20:02:00,51.0,-99.9,30.01,WSW,243,7.0,11.0,-999,-99.99,,,-99.99,,2013-03-07 04:02:00,
2013-03-06 20:12:00,51.0,-99.9,30.01,WSW,249,5.0,10.0,-999,-99.99,,,-99.99,,2013-03-07 04:12:00,
2013-03-06 20:22:00,51.0,-99.9,30.01,SW,224,4.0,7.0,-999,-99.99,,,-99.99,,2013-03-07 04:22:00,
2013-03-06 20:32:00,51.0,-99.9,30.01,WSW,246,6.0,10.0,-999,-99.99,,,-99.99,,2013-03-07 04:32:00,
2013-03-06 20:42:00,51.0,-99.9,30.00,WSW,256,5.0,8.0,-999,-99.99,,,-99.99,,2013-03-07 04:42:00,
2013-03-06 20:52:00,51.0,-99.9,30.00,WSW,245,6.0,9.0,-999,-99.99,,,-99.99,,2013-03-07 04:52:00,
2013-03-06 21:02:00,50.0,-99.9,30.00,SW,232,4.0,7.0,-999,-99.99,,,-99.99,,2013-03-07 05:02:00,
2013-03-06 21:12:00,51.0,-99.9,30.00,SW,225,6.0,10.0,-999,-99.99,,,-99.99,,2013-03-07 05:12:00,
2013-03-06 21:23:00,50.0,-99.9,30.00,WSW,256,5.0,7.0,-999,-99.99,,,-99.99,,2013-03-07 05:23:00,
2013-03-06 21:32:00,50.0,-99.9,30.00,WSW,245,6.0,8.0,-999,-99.99,,,-99.99,,2013-03-07 05:32:00,
2013-03-06 21:42:00,50.0,-99.9,30.00,WSW,252,6.0,9.0,-999,-99.99,,,-99.99,,2013-03-07 05:42:00,
2013-03-06 21:53:00,50.0,-99.9,30.00,West,265,4.0,8.0,-999,-99.99,,,-99.99,,2013-03-07 05:53:00,
2013-03-06 22:02:00,50.0,-99.9,30.00,West,263,3.0,5.0,-999,-99.99,,,-99.99,,2013-03-07 06:02:00,
2013-03-06 22:11:00,50.0,-99.9,30.00,South,181,1.0,4.0,-999,-99.99,,,-99.99,,2013-03-07 06:11:00,
2013-03-06 22:22:00,50.0,-99.9,30.00,ESE,114,2.0,4.0,-999,-99.99,,,-99.99,,2013-03-07 06:22:00,
2013-03-06 22:32:00,50.0,-99.9,29.99,SE,128,2.0,3.0,-999,-99.99,,,-99.99,,2013-03-07 06:32:00,
2013-03-06 22:42:00,50.0,-99.9,29.99,ESE,121,3.0,4.0,-999,-99.99,,,-99.99,,2013-03-07 06:42:00,
2013-03-06 22:52:00,50.0,-99.9,29.99,ENE,73,0.0,2.0,-999,-99.99,,,-99.99,,2013-03-07 06:52:00,
2013-03-06 23:02:00,50.0,-99.9,29.98,ENE,58,2.0,3.0,-999,-99.99,,,-99.99,,2013-03-07 07:02:00,
2013-03-06 23:11:00,50.0,-99.9,29.98,ENE,65,0.0,4.0,-999,-99.99,,,-99.99,,2013-03-07 07:11:00,
2013-03-06 23:22:00,50.0,-99.9,29.98,East,79,2.0,4.0,-999,-99.99,,,-99.99,,2013-03-07 07:22:00,
2013-03-06 23:32:00,50.0,-99.9,29.98,ESE,105,1.0,2.0,-999,-99.99,,,-99.99,,2013-03-07 07:32:00,
2013-03-06 23:43:00,50.0,-99.9,29.98,ESE,105,1.0,2.0,-999,-99.99,,,-99.99,,2013-03-07 07:43:00,
2013-03-06 23:53:00,50.0,-99.9,29.98,WNW,297,1.0,2.0,-999,-99.99,,,-99.99,,2013-03-07 07:53:00,